sensor_id;sensor_type;location;lat;lon;timestamp;pressure;altitude;pressure_sealevel;temperature;humidity
40490;BME280;26196;52.302;10.572;2023-05-02T00:03:39;100656.06;;;17.52;45.16
40490;BME280;26196;52.302;10.572;2023-05-02T00:07:41;100661.28;;;17.53;45.04
40490;BME280;26196;52.302;10.572;2023-05-02T00:11:41;100657.19;;;17.47;45.34
40490;BME280;26196;52.302;10.572;2023-05-02T00:15:42;100658.88;;;17.48;45.19
40490;BME280;26196;52.302;10.572;2023-05-02T00:19:42;100656.25;;;17.48;45.03
40490;BME280;26196;52.302;10.572;2023-05-02T00:23:43;100650.16;;;17.46;45.05
40490;BME280;26196;52.302;10.572;2023-05-02T00:27:43;100648.47;;;17.45;45.08
40490;BME280;26196;52.302;10.572;2023-05-02T00:31:45;100658.09;;;17.46;45.33
40490;BME280;26196;52.302;10.572;2023-05-02T00:35:46;100655.72;;;17.42;44.93
40490;BME280;26196;52.302;10.572;2023-05-02T00:39:46;100664.59;;;17.41;45.32
40490;BME280;26196;52.302;10.572;2023-05-02T00:43:46;100665.38;;;17.43;44.78
40490;BME280;26196;52.302;10.572;2023-05-02T00:47:48;100662.22;;;17.36;44.95
40490;BME280;26196;52.302;10.572;2023-05-02T00:51:49;100670.22;;;17.35;45.18
40490;BME280;26196;52.302;10.572;2023-05-02T00:55:49;100677.91;;;17.39;44.95
40490;BME280;26196;52.302;10.572;2023-05-02T00:59:50;100670.91;;;17.38;44.76
40490;BME280;26196;52.302;10.572;2023-05-02T01:08:04;100669.38;;;17.34;45.03
40490;BME280;26196;52.302;10.572;2023-05-02T01:12:27;100664.06;;;17.34;44.71
40490;BME280;26196;52.302;10.572;2023-05-02T01:16:31;100669.59;;;17.30;44.85
40490;BME280;26196;52.302;10.572;2023-05-02T01:20:35;100666.88;;;17.31;44.94
40490;BME280;26196;52.302;10.572;2023-05-02T01:29:15;100678.38;;;17.30;44.65
40490;BME280;26196;52.302;10.572;2023-05-02T01:33:17;100677.59;;;17.28;44.83
40490;BME280;26196;52.302;10.572;2023-05-02T01:37:19;100685.53;;;17.28;44.60
40490;BME280;26196;52.302;10.572;2023-05-02T01:41:20;100689.91;;;17.29;44.85
40490;BME280;26196;52.302;10.572;2023-05-02T01:45:22;100689.47;;;17.21;45.05
40490;BME280;26196;52.302;10.572;2023-05-02T01:49:24;100689.59;;;17.18;44.59
40490;BME280;26196;52.302;10.572;2023-05-02T01:53:27;100687.06;;;17.16;44.86
40490;BME280;26196;52.302;10.572;2023-05-02T01:57:30;100681.03;;;17.13;44.59
40490;BME280;26196;52.302;10.572;2023-05-02T02:01:31;100688.28;;;17.09;44.50
40490;BME280;26196;52.302;10.572;2023-05-02T02:05:33;100696.00;;;17.14;44.58
40490;BME280;26196;52.302;10.572;2023-05-02T02:09:34;100688.38;;;17.08;44.85
40490;BME280;26196;52.302;10.572;2023-05-02T02:13:38;100695.22;;;17.12;44.91
40490;BME280;26196;52.302;10.572;2023-05-02T02:17:48;100706.91;;;17.08;44.73
40490;BME280;26196;52.302;10.572;2023-05-02T02:21:50;100707.81;;;17.06;44.86
40490;BME280;26196;52.302;10.572;2023-05-02T02:25:51;100712.25;;;17.06;44.60
40490;BME280;26196;52.302;10.572;2023-05-02T02:29:53;100718.41;;;17.06;44.75
40490;BME280;26196;52.302;10.572;2023-05-02T02:33:53;100724.53;;;17.07;44.79
40490;BME280;26196;52.302;10.572;2023-05-02T02:38:01;100723.69;;;17.06;44.84
40490;BME280;26196;52.302;10.572;2023-05-02T02:42:11;100721.19;;;17.03;44.72
40490;BME280;26196;52.302;10.572;2023-05-02T02:50:37;100742.50;;;17.00;44.99
40490;BME280;26196;52.302;10.572;2023-05-02T02:54:49;100742.59;;;16.99;44.81
40490;BME280;26196;52.302;10.572;2023-05-02T02:59:04;100743.53;;;16.98;45.06
40490;BME280;26196;52.302;10.572;2023-05-02T03:03:06;100743.69;;;16.95;44.62
40490;BME280;26196;52.302;10.572;2023-05-02T03:07:08;100749.66;;;16.98;44.50
40490;BME280;26196;52.302;10.572;2023-05-02T03:11:17;100760.19;;;17.00;44.56
40490;BME280;26196;52.302;10.572;2023-05-02T03:19:30;100767.47;;;16.95;44.64
40490;BME280;26196;52.302;10.572;2023-05-02T03:23:30;100770.03;;;16.96;44.73
40490;BME280;26196;52.302;10.572;2023-05-02T03:27:31;100775.63;;;16.90;44.57
40490;BME280;26196;52.302;10.572;2023-05-02T03:31:31;100779.19;;;16.89;44.43
40490;BME280;26196;52.302;10.572;2023-05-02T03:35:31;100779.19;;;16.89;44.67
40490;BME280;26196;52.302;10.572;2023-05-02T03:39:32;100785.47;;;16.87;44.84
40490;BME280;26196;52.302;10.572;2023-05-02T03:43:32;100789.91;;;16.86;44.64
40490;BME280;26196;52.302;10.572;2023-05-02T03:47:33;100790.72;;;16.88;44.45
40490;BME280;26196;52.302;10.572;2023-05-02T03:51:33;100798.66;;;16.88;44.53
40490;BME280;26196;52.302;10.572;2023-05-02T03:55:43;100805.78;;;16.86;44.52
40490;BME280;26196;52.302;10.572;2023-05-02T03:59:44;100806.72;;;16.85;44.43
40490;BME280;26196;52.302;10.572;2023-05-02T04:03:45;100812.94;;;16.84;44.41
40490;BME280;26196;52.302;10.572;2023-05-02T04:07:45;100810.59;;;16.78;44.54
40490;BME280;26196;52.302;10.572;2023-05-02T04:11:45;100823.81;;;16.78;44.71
40490;BME280;26196;52.302;10.572;2023-05-02T04:15:46;100828.28;;;16.76;44.92
40490;BME280;26196;52.302;10.572;2023-05-02T04:19:46;100823.94;;;16.75;44.94
40490;BME280;26196;52.302;10.572;2023-05-02T04:23:47;100826.72;;;16.72;45.00
40490;BME280;26196;52.302;10.572;2023-05-02T04:27:47;100829.22;;;16.75;44.86
40490;BME280;26196;52.302;10.572;2023-05-02T04:31:47;100835.28;;;16.77;44.94
40490;BME280;26196;52.302;10.572;2023-05-02T04:35:48;100853.69;;;16.80;44.61
40490;BME280;26196;52.302;10.572;2023-05-02T04:39:48;100848.44;;;16.78;45.00
40490;BME280;26196;52.302;10.572;2023-05-02T04:43:49;100850.31;;;16.76;44.77
40490;BME280;26196;52.302;10.572;2023-05-02T04:47:49;100855.66;;;16.75;44.95
40490;BME280;26196;52.302;10.572;2023-05-02T04:51:49;100860.16;;;16.73;45.23
40490;BME280;26196;52.302;10.572;2023-05-02T04:55:51;100869.03;;;16.72;45.57
40490;BME280;26196;52.302;10.572;2023-05-02T04:59:52;100877.09;;;16.69;45.33
40490;BME280;26196;52.302;10.572;2023-05-02T05:03:53;100874.66;;;16.64;45.40
40490;BME280;26196;52.302;10.572;2023-05-02T05:07:53;100879.78;;;16.67;45.43
40490;BME280;26196;52.302;10.572;2023-05-02T05:11:54;100886.09;;;16.65;45.27
40490;BME280;26196;52.302;10.572;2023-05-02T05:15:54;100887.94;;;16.62;45.48
40490;BME280;26196;52.302;10.572;2023-05-02T05:19:54;100897.72;;;16.60;45.52
40490;BME280;26196;52.302;10.572;2023-05-02T05:23:55;100898.50;;;16.62;45.46
40490;BME280;26196;52.302;10.572;2023-05-02T05:27:56;100906.56;;;16.59;45.71
40490;BME280;26196;52.302;10.572;2023-05-02T05:31:56;100919.09;;;16.56;45.84
40490;BME280;26196;52.302;10.572;2023-05-02T05:36:05;100927.91;;;16.55;46.02
40490;BME280;26196;52.302;10.572;2023-05-02T05:40:07;100926.28;;;16.52;46.04
40490;BME280;26196;52.302;10.572;2023-05-02T05:44:07;100935.84;;;16.55;46.11
40490;BME280;26196;52.302;10.572;2023-05-02T05:48:08;100929.25;;;16.45;46.33
40490;BME280;26196;52.302;10.572;2023-05-02T05:52:08;100952.00;;;16.49;46.67
40490;BME280;26196;52.302;10.572;2023-05-02T05:56:10;100949.41;;;16.47;46.71
40490;BME280;26196;52.302;10.572;2023-05-02T06:00:11;100957.22;;;16.50;46.76
40490;BME280;26196;52.302;10.572;2023-05-02T06:04:11;100967.00;;;16.48;46.80
40490;BME280;26196;52.302;10.572;2023-05-02T06:08:11;100961.19;;;16.40;47.20
40490;BME280;26196;52.302;10.572;2023-05-02T06:12:12;100987.47;;;16.43;47.36
40490;BME280;26196;52.302;10.572;2023-05-02T06:16:12;100991.81;;;16.44;47.49
40490;BME280;26196;52.302;10.572;2023-05-02T06:20:12;100995.59;;;16.38;47.93
40490;BME280;26196;52.302;10.572;2023-05-02T06:24:13;101002.59;;;16.39;47.93
40490;BME280;26196;52.302;10.572;2023-05-02T06:28:13;101014.03;;;16.40;48.15
40490;BME280;26196;52.302;10.572;2023-05-02T06:32:13;101030.94;;;16.36;48.24
40490;BME280;26196;52.302;10.572;2023-05-02T06:36:15;101041.69;;;16.31;48.46
40490;BME280;26196;52.302;10.572;2023-05-02T06:40:15;101055.13;;;16.27;48.64
40490;BME280;26196;52.302;10.572;2023-05-02T06:44:15;101053.38;;;16.26;48.45
40490;BME280;26196;52.302;10.572;2023-05-02T06:48:16;101075.13;;;16.32;48.64
40490;BME280;26196;52.302;10.572;2023-05-02T06:52:16;101078.88;;;16.27;49.13
40490;BME280;26196;52.302;10.572;2023-05-02T06:56:16;101095.09;;;16.17;49.33
40490;BME280;26196;52.302;10.572;2023-05-02T07:00:17;101104.81;;;16.17;49.06
40490;BME280;26196;52.302;10.572;2023-05-02T07:04:18;101114.53;;;16.16;49.04
40490;BME280;26196;52.302;10.572;2023-05-02T07:08:19;101117.16;;;16.16;48.92
40490;BME280;26196;52.302;10.572;2023-05-02T07:12:21;101117.25;;;16.13;48.83
40490;BME280;26196;52.302;10.572;2023-05-02T07:16:21;101121.81;;;16.10;48.76
40490;BME280;26196;52.302;10.572;2023-05-02T07:20:22;101146.13;;;16.18;48.86
40490;BME280;26196;52.302;10.572;2023-05-02T07:24:22;101141.97;;;16.12;48.97
40490;BME280;26196;52.302;10.572;2023-05-02T07:28:23;101161.38;;;16.11;49.32
40490;BME280;26196;52.302;10.572;2023-05-02T07:32:23;101162.25;;;16.12;49.49
40490;BME280;26196;52.302;10.572;2023-05-02T07:36:26;101168.56;;;16.08;50.09
40490;BME280;26196;52.302;10.572;2023-05-02T07:40:27;101167.94;;;16.01;50.28
40490;BME280;26196;52.302;10.572;2023-05-02T07:44:27;101175.75;;;16.04;50.28
40490;BME280;26196;52.302;10.572;2023-05-02T07:48:28;101176.72;;;16.02;50.30
40490;BME280;26196;52.302;10.572;2023-05-02T07:52:28;101179.28;;;16.03;50.43
40490;BME280;26196;52.302;10.572;2023-05-02T07:56:28;101189.97;;;16.00;50.72
40490;BME280;26196;52.302;10.572;2023-05-02T08:00:29;101186.56;;;15.98;50.50
40490;BME280;26196;52.302;10.572;2023-05-02T08:04:29;101191.59;;;16.04;50.40
40490;BME280;26196;52.302;10.572;2023-05-02T08:08:30;101187.53;;;15.95;50.45
40490;BME280;26196;52.302;10.572;2023-05-02T08:12:30;101204.97;;;16.00;50.45
40490;BME280;26196;52.302;10.572;2023-05-02T08:16:30;101212.06;;;15.97;50.44
40490;BME280;26196;52.302;10.572;2023-05-02T08:20:31;101204.34;;;15.93;50.74
40490;BME280;26196;52.302;10.572;2023-05-02T08:24:31;101213.25;;;15.90;50.27
40490;BME280;26196;52.302;10.572;2023-05-02T08:28:31;101224.66;;;15.91;50.14
40490;BME280;26196;52.302;10.572;2023-05-02T08:32:32;101228.13;;;15.93;50.13
40490;BME280;26196;52.302;10.572;2023-05-02T08:36:32;101231.81;;;15.87;50.17
40490;BME280;26196;52.302;10.572;2023-05-02T08:40:36;101231.81;;;15.87;50.33
40490;BME280;26196;52.302;10.572;2023-05-02T08:44:37;101238.88;;;15.87;50.36
40490;BME280;26196;52.302;10.572;2023-05-02T08:48:40;101240.91;;;15.80;49.68
40490;BME280;26196;52.302;10.572;2023-05-02T08:52:41;101255.66;;;15.86;49.53
40490;BME280;26196;52.302;10.572;2023-05-02T08:56:43;101260.94;;;15.86;49.23
40490;BME280;26196;52.302;10.572;2023-05-02T09:00:45;101275.16;;;15.82;49.43
40490;BME280;26196;52.302;10.572;2023-05-02T09:04:49;101272.50;;;15.82;49.25
40490;BME280;26196;52.302;10.572;2023-05-02T09:08:53;101290.78;;;15.88;49.09
40490;BME280;26196;52.302;10.572;2023-05-02T09:12:54;101288.25;;;15.85;49.07
40490;BME280;26196;52.302;10.572;2023-05-02T09:16:58;101296.84;;;15.90;48.81
40490;BME280;26196;52.302;10.572;2023-05-02T09:21:15;101306.72;;;15.85;48.76
40490;BME280;26196;52.302;10.572;2023-05-02T09:25:16;101322.75;;;15.80;48.33
40490;BME280;26196;52.302;10.572;2023-05-02T09:29:18;101337.38;;;15.89;47.76
40490;BME280;26196;52.302;10.572;2023-05-02T09:33:26;101341.97;;;15.84;47.37
40490;BME280;26196;52.302;10.572;2023-05-02T09:37:33;101344.56;;;15.85;46.91
40490;BME280;26196;52.302;10.572;2023-05-02T09:41:45;101337.63;;;15.83;46.54
40490;BME280;26196;52.302;10.572;2023-05-02T09:45:59;101340.25;;;15.83;46.33
40490;BME280;26196;52.302;10.572;2023-05-02T09:50:00;101349.06;;;15.82;46.32
40490;BME280;26196;52.302;10.572;2023-05-02T09:54:01;101364.00;;;15.83;46.13
40490;BME280;26196;52.302;10.572;2023-05-02T09:58:01;101363.13;;;15.82;45.56
40490;BME280;26196;52.302;10.572;2023-05-02T10:02:03;101366.72;;;15.80;45.33
40490;BME280;26196;52.302;10.572;2023-05-02T10:06:08;101368.59;;;15.78;45.14
40490;BME280;26196;52.302;10.572;2023-05-02T10:10:13;101380.88;;;15.79;45.07
40490;BME280;26196;52.302;10.572;2023-05-02T10:14:18;101372.91;;;15.80;44.86
40490;BME280;26196;52.302;10.572;2023-05-02T10:18:27;101379.16;;;15.78;45.05
40490;BME280;26196;52.302;10.572;2023-05-02T10:22:28;101343.00;;;15.53;44.69
40490;BME280;26196;52.302;10.572;2023-05-02T10:26:30;101390.50;;;15.80;44.65
40490;BME280;26196;52.302;10.572;2023-05-02T10:30:32;101393.25;;;15.77;44.04
40490;BME280;26196;52.302;10.572;2023-05-02T10:34:34;101388.81;;;15.77;44.05
40490;BME280;26196;52.302;10.572;2023-05-02T10:38:36;101393.47;;;15.70;44.05
40490;BME280;26196;52.302;10.572;2023-05-02T10:42:39;101403.81;;;15.77;43.76
40490;BME280;26196;52.302;10.572;2023-05-02T10:46:41;101407.25;;;15.79;43.41
40490;BME280;26196;52.302;10.572;2023-05-02T10:50:53;101407.25;;;15.79;43.84
40490;BME280;26196;52.302;10.572;2023-05-02T10:59:27;101413.34;;;15.81;43.89
40490;BME280;26196;52.302;10.572;2023-05-02T11:03:56;101406.25;;;15.83;43.58
40490;BME280;26196;52.302;10.572;2023-05-02T11:12:44;101405.22;;;15.87;43.71
40490;BME280;26196;52.302;10.572;2023-05-02T11:21:28;101402.56;;;15.87;44.16
40490;BME280;26196;52.302;10.572;2023-05-02T11:25:30;101400.75;;;15.89;44.42
40490;BME280;26196;52.302;10.572;2023-05-02T11:30:05;101408.63;;;15.90;44.33
40490;BME280;26196;52.302;10.572;2023-05-02T11:34:06;101412.13;;;15.91;42.98
40490;BME280;26196;52.302;10.572;2023-05-02T11:38:09;101420.94;;;15.90;43.37
40490;BME280;26196;52.302;10.572;2023-05-02T11:42:30;101413.91;;;15.90;43.67
40490;BME280;26196;52.302;10.572;2023-05-02T11:46:30;101426.13;;;15.93;43.97
40490;BME280;26196;52.302;10.572;2023-05-02T11:50:32;101421.81;;;15.90;43.60
40490;BME280;26196;52.302;10.572;2023-05-02T11:54:33;101417.28;;;15.94;44.39
40490;BME280;26196;52.302;10.572;2023-05-02T11:58:33;101424.28;;;15.95;44.26
40490;BME280;26196;52.302;10.572;2023-05-02T12:02:38;101417.19;;;15.97;43.97
40490;BME280;26196;52.302;10.572;2023-05-02T12:06:53;101434.69;;;16.00;43.97
40490;BME280;26196;52.302;10.572;2023-05-02T12:10:55;101439.22;;;15.96;43.76
40490;BME280;26196;52.302;10.572;2023-05-02T12:14:56;101443.34;;;16.03;43.97
40490;BME280;26196;52.302;10.572;2023-05-02T12:18:57;101451.47;;;15.99;44.10
40490;BME280;26196;52.302;10.572;2023-05-02T12:22:58;101452.09;;;16.05;43.69
40490;BME280;26196;52.302;10.572;2023-05-02T12:27:13;101458.22;;;16.06;43.48
40490;BME280;26196;52.302;10.572;2023-05-02T12:31:14;101451.97;;;16.08;43.82
40490;BME280;26196;52.302;10.572;2023-05-02T12:35:20;101456.28;;;16.11;43.38
40490;BME280;26196;52.302;10.572;2023-05-02T12:39:39;101451.91;;;16.11;43.75
40490;BME280;26196;52.302;10.572;2023-05-02T12:43:47;101460.59;;;16.13;44.01
40490;BME280;26196;52.302;10.572;2023-05-02T12:47:48;101460.59;;;16.13;43.40
40490;BME280;26196;52.302;10.572;2023-05-02T12:51:52;101468.44;;;16.16;43.81
40490;BME280;26196;52.302;10.572;2023-05-02T12:56:02;101477.22;;;16.17;43.58
40490;BME280;26196;52.302;10.572;2023-05-02T13:00:04;101466.78;;;16.14;43.43
40490;BME280;26196;52.302;10.572;2023-05-02T13:04:04;101469.03;;;16.25;43.15
40490;BME280;26196;52.302;10.572;2023-05-02T13:08:05;101467.28;;;16.24;43.49
40490;BME280;26196;52.302;10.572;2023-05-02T13:12:05;101471.59;;;16.26;43.09
40490;BME280;26196;52.302;10.572;2023-05-02T13:16:06;101466.41;;;16.25;42.60
40490;BME280;26196;52.302;10.572;2023-05-02T13:20:07;101477.66;;;16.30;42.67
40490;BME280;26196;52.302;10.572;2023-05-02T13:24:08;101466.31;;;16.26;42.28
40490;BME280;26196;52.302;10.572;2023-05-02T13:28:09;101478.53;;;16.30;42.74
40490;BME280;26196;52.302;10.572;2023-05-02T13:32:10;101485.41;;;16.34;41.95
40490;BME280;26196;52.302;10.572;2023-05-02T13:36:10;101487.03;;;16.38;41.50
40490;BME280;26196;52.302;10.572;2023-05-02T13:40:11;101493.00;;;16.44;42.00
40490;BME280;26196;52.302;10.572;2023-05-02T13:44:12;101491.22;;;16.44;42.26
40490;BME280;26196;52.302;10.572;2023-05-02T13:48:12;101491.09;;;16.47;42.17
40490;BME280;26196;52.302;10.572;2023-05-02T13:52:12;101491.03;;;16.50;42.80
40490;BME280;26196;52.302;10.572;2023-05-02T13:56:13;101488.25;;;16.53;43.23
40490;BME280;26196;52.302;10.572;2023-05-02T14:00:13;101487.34;;;16.54;44.17
40490;BME280;26196;52.302;10.572;2023-05-02T14:04:13;101482.06;;;16.54;45.07
40490;BME280;26196;52.302;10.572;2023-05-02T14:08:14;101496.06;;;16.56;44.49
40490;BME280;26196;52.302;10.572;2023-05-02T14:12:17;101502.19;;;16.58;45.09
40490;BME280;26196;52.302;10.572;2023-05-02T14:16:17;101501.19;;;16.61;45.50
40490;BME280;26196;52.302;10.572;2023-05-02T14:20:18;101496.78;;;16.61;45.90
40490;BME280;26196;52.302;10.572;2023-05-02T14:24:18;101468.38;;;16.43;44.79
40490;BME280;26196;52.302;10.572;2023-05-02T14:28:18;101508.03;;;16.67;45.09
40490;BME280;26196;52.302;10.572;2023-05-02T14:32:19;101512.34;;;16.69;45.34
40490;BME280;26196;52.302;10.572;2023-05-02T14:36:19;101515.81;;;16.71;44.73
40490;BME280;26196;52.302;10.572;2023-05-02T14:40:19;101521.25;;;16.67;42.63
40490;BME280;26196;52.302;10.572;2023-05-02T14:44:20;101515.16;;;16.65;42.89
40490;BME280;26196;52.302;10.572;2023-05-02T14:48:20;101531.56;;;16.74;43.40
40490;BME280;26196;52.302;10.572;2023-05-02T14:52:21;101537.66;;;16.76;42.04
40490;BME280;26196;52.302;10.572;2023-05-02T14:56:21;101538.78;;;16.69;39.31
40490;BME280;26196;52.302;10.572;2023-05-02T15:00:22;101540.03;;;16.09;37.00
40490;BME280;26196;52.302;10.572;2023-05-02T15:04:22;101541.38;;;16.21;37.63
40490;BME280;26196;52.302;10.572;2023-05-02T15:08:25;101532.31;;;16.28;38.43
40490;BME280;26196;52.302;10.572;2023-05-02T15:12:25;101536.38;;;16.38;41.13
40490;BME280;26196;52.302;10.572;2023-05-02T15:16:25;101537.09;;;16.43;40.24
40490;BME280;26196;52.302;10.572;2023-05-02T15:20:26;101548.09;;;16.56;40.84
40490;BME280;26196;52.302;10.572;2023-05-02T15:24:26;101552.28;;;16.61;41.25
40490;BME280;26196;52.302;10.572;2023-05-02T15:28:27;101552.16;;;16.65;41.46
40490;BME280;26196;52.302;10.572;2023-05-02T15:32:28;101560.06;;;16.66;41.59
40490;BME280;26196;52.302;10.572;2023-05-02T15:36:29;101565.22;;;16.69;42.13
40490;BME280;26196;52.302;10.572;2023-05-02T15:40:30;101574.84;;;16.72;42.60
40490;BME280;26196;52.302;10.572;2023-05-02T15:44:34;101564.41;;;16.67;42.87
40490;BME280;26196;52.302;10.572;2023-05-02T15:48:35;101583.50;;;16.75;41.77
40490;BME280;26196;52.302;10.572;2023-05-02T15:52:35;101598.44;;;16.78;42.48
40490;BME280;26196;52.302;10.572;2023-05-02T15:56:36;101601.94;;;16.78;41.60
40490;BME280;26196;52.302;10.572;2023-05-02T16:00:36;101600.16;;;16.79;40.61
40490;BME280;26196;52.302;10.572;2023-05-02T16:04:37;101612.53;;;16.77;41.68
40490;BME280;26196;52.302;10.572;2023-05-02T16:08:38;101611.66;;;16.78;41.30
40490;BME280;26196;52.302;10.572;2023-05-02T16:12:38;101615.16;;;16.78;42.63
40490;BME280;26196;52.302;10.572;2023-05-02T16:16:38;101632.81;;;16.78;40.84
40490;BME280;26196;52.302;10.572;2023-05-02T16:20:39;101638.09;;;16.78;41.61
40490;BME280;26196;52.302;10.572;2023-05-02T16:24:41;101622.41;;;16.72;42.09
40490;BME280;26196;52.302;10.572;2023-05-02T16:28:41;101628.53;;;16.74;42.09
40490;BME280;26196;52.302;10.572;2023-05-02T16:32:42;101633.84;;;16.72;41.53
40490;BME280;26196;52.302;10.572;2023-05-02T16:36:42;101634.81;;;16.70;42.06
40490;BME280;26196;52.302;10.572;2023-05-02T16:40:43;101621.75;;;16.65;41.83
40490;BME280;26196;52.302;10.572;2023-05-02T16:44:43;101631.34;;;16.68;42.01
40490;BME280;26196;52.302;10.572;2023-05-02T16:48:43;101636.59;;;16.69;41.93
40490;BME280;26196;52.302;10.572;2023-05-02T16:52:44;101627.13;;;16.63;41.77
40490;BME280;26196;52.302;10.572;2023-05-02T16:56:44;101641.88;;;16.69;42.11
40490;BME280;26196;52.302;10.572;2023-05-02T17:00:44;101642.88;;;16.67;42.10
40490;BME280;26196;52.302;10.572;2023-05-02T17:04:45;101657.69;;;16.71;41.28
40490;BME280;26196;52.302;10.572;2023-05-02T17:08:45;101645.63;;;16.63;40.94
40490;BME280;26196;52.302;10.572;2023-05-02T17:12:45;101654.28;;;16.67;41.37
40490;BME280;26196;52.302;10.572;2023-05-02T17:16:46;101651.66;;;16.67;42.02
40490;BME280;26196;52.302;10.572;2023-05-02T17:20:46;101649.13;;;16.64;41.98
40490;BME280;26196;52.302;10.572;2023-05-02T17:24:48;101662.38;;;16.62;41.66
40490;BME280;26196;52.302;10.572;2023-05-02T17:28:51;101663.22;;;16.63;40.72
40490;BME280;26196;52.302;10.572;2023-05-02T17:32:52;101662.47;;;16.59;39.83
40490;BME280;26196;52.302;10.572;2023-05-02T17:36:53;101662.63;;;16.55;40.37
40490;BME280;26196;52.302;10.572;2023-05-02T17:40:53;101657.53;;;16.50;40.92
40490;BME280;26196;52.302;10.572;2023-05-02T17:44:54;101662.75;;;16.52;40.18
40490;BME280;26196;52.302;10.572;2023-05-02T17:48:54;101674.16;;;16.52;40.39
40490;BME280;26196;52.302;10.572;2023-05-02T17:52:55;101669.09;;;16.46;40.94
40490;BME280;26196;52.302;10.572;2023-05-02T17:56:56;101679.56;;;16.49;40.50
40490;BME280;26196;52.302;10.572;2023-05-02T18:01:04;101682.22;;;16.49;39.91
40490;BME280;26196;52.302;10.572;2023-05-02T18:05:05;101690.38;;;16.41;39.94
40490;BME280;26196;52.302;10.572;2023-05-02T18:09:06;101695.63;;;16.43;40.52
40490;BME280;26196;52.302;10.572;2023-05-02T18:13:06;101702.75;;;16.41;40.60
40490;BME280;26196;52.302;10.572;2023-05-02T18:17:07;101701.97;;;16.37;40.94
40490;BME280;26196;52.302;10.572;2023-05-02T18:21:08;101709.75;;;16.42;40.77
40490;BME280;26196;52.302;10.572;2023-05-02T18:25:08;101708.84;;;16.43;40.88
40490;BME280;26196;52.302;10.572;2023-05-02T18:29:09;101695.16;;;16.30;40.82
40490;BME280;26196;52.302;10.572;2023-05-02T18:33:09;101705.41;;;16.39;40.98
40490;BME280;26196;52.302;10.572;2023-05-02T18:37:09;101703.81;;;16.35;38.33
40490;BME280;26196;52.302;10.572;2023-05-02T18:41:10;101712.72;;;16.31;39.30
40490;BME280;26196;52.302;10.572;2023-05-02T18:45:11;101723.38;;;16.30;37.98
40490;BME280;26196;52.302;10.572;2023-05-02T18:49:11;101719.06;;;16.26;39.06
40490;BME280;26196;52.302;10.572;2023-05-02T18:53:12;101722.53;;;16.28;40.08
40490;BME280;26196;52.302;10.572;2023-05-02T18:57:14;101726.00;;;16.30;40.22
40490;BME280;26196;52.302;10.572;2023-05-02T19:01:15;101721.69;;;16.27;39.64
40490;BME280;26196;52.302;10.572;2023-05-02T19:05:16;101721.72;;;16.26;40.64
40490;BME280;26196;52.302;10.572;2023-05-02T19:09:16;101733.16;;;16.26;40.16
40490;BME280;26196;52.302;10.572;2023-05-02T19:13:17;101741.13;;;16.25;40.47
40490;BME280;26196;52.302;10.572;2023-05-02T19:17:18;101740.31;;;16.23;40.62
40490;BME280;26196;52.302;10.572;2023-05-02T19:21:18;101746.53;;;16.22;39.64
40490;BME280;26196;52.302;10.572;2023-05-02T19:25:19;101755.22;;;16.25;40.41
40490;BME280;26196;52.302;10.572;2023-05-02T19:29:20;101758.78;;;16.24;40.34
40490;BME280;26196;52.302;10.572;2023-05-02T19:33:20;101764.13;;;16.21;40.11
40490;BME280;26196;52.302;10.572;2023-05-02T19:37:20;101772.88;;;16.23;40.69
40490;BME280;26196;52.302;10.572;2023-05-02T19:41:21;101770.47;;;16.15;39.98
40490;BME280;26196;52.302;10.572;2023-05-02T19:45:21;101774.69;;;16.21;39.62
40490;BME280;26196;52.302;10.572;2023-05-02T19:49:22;101784.50;;;16.17;39.69
40490;BME280;26196;52.302;10.572;2023-05-02T19:53:22;101795.91;;;16.18;40.51
40490;BME280;26196;52.302;10.572;2023-05-02T19:57:24;101792.47;;;16.16;40.22
40490;BME280;26196;52.302;10.572;2023-05-02T20:01:24;101790.94;;;16.09;41.28
40490;BME280;26196;52.302;10.572;2023-05-02T20:05:31;101794.53;;;16.06;40.55
40490;BME280;26196;52.302;10.572;2023-05-02T20:09:31;101803.22;;;16.10;40.67
40490;BME280;26196;52.302;10.572;2023-05-02T20:13:31;101797.09;;;16.08;40.04
40490;BME280;26196;52.302;10.572;2023-05-02T20:17:32;101805.03;;;16.08;40.53
40490;BME280;26196;52.302;10.572;2023-05-02T20:21:32;101805.13;;;16.05;40.71
40490;BME280;26196;52.302;10.572;2023-05-02T20:25:32;101804.41;;;16.00;40.27
40490;BME280;26196;52.302;10.572;2023-05-02T20:29:33;101795.63;;;15.99;40.59
40490;BME280;26196;52.302;10.572;2023-05-02T20:33:33;101811.47;;;15.99;40.29
40490;BME280;26196;52.302;10.572;2023-05-02T20:37:33;101816.84;;;15.96;40.45
40490;BME280;26196;52.302;10.572;2023-05-02T20:41:34;101819.47;;;15.96;40.10
40490;BME280;26196;52.302;10.572;2023-05-02T20:45:35;101814.22;;;15.94;40.59
40490;BME280;26196;52.302;10.572;2023-05-02T20:49:35;101821.31;;;15.92;40.20
40490;BME280;26196;52.302;10.572;2023-05-02T20:53:35;101825.81;;;15.90;40.28
40490;BME280;26196;52.302;10.572;2023-05-02T20:57:37;101819.78;;;15.85;39.70
40490;BME280;26196;52.302;10.572;2023-05-02T21:01:37;101829.38;;;15.88;40.18
40490;BME280;26196;52.302;10.572;2023-05-02T21:05:38;101833.78;;;15.87;40.08
40490;BME280;26196;52.302;10.572;2023-05-02T21:09:38;101839.22;;;15.83;39.73
40490;BME280;26196;52.302;10.572;2023-05-02T21:13:39;101838.28;;;15.84;39.88
40490;BME280;26196;52.302;10.572;2023-05-02T21:17:39;101829.59;;;15.80;39.66
40490;BME280;26196;52.302;10.572;2023-05-02T21:21:40;101835.78;;;15.79;39.61